Terminal Aerodrome Forecast
Issued by NWS Cleveland, OH

Home | Current Version | Previous Version | Graphics & Text | Print | Product List | Glossary On
Versions: 1 2 3 4 5 6 7 8 9 10 11 12 13 14 15 16 17 18 19
000
FTUS41 KCLE 240500
TAFYNG
TAF
KYNG 240536Z 2406/2506 13008KT 6SM -RA BR SCT035 OVC060
     FM240800 13007KT 5SM -RA BR SCT007 OVC025
     FM241200 13010KT 3SM -RA BR OVC007
     FM241900 16012G22KT P6SM -SHRA OVC012
     FM250000 22020G35KT P6SM OVC020=

USA.gov is the U.S. government's official web portal to all federal, state and local government web resources and services.